Red Mountain, CA

11:19 AM PDT on October 01, 2014 (GMT -0700)
China Lake NAWS | Change Station
CLOSE
Current Station
Airport
Location: China Lake,
Elevation: 2283 ft
Nearby Weather Stations

Elev 2283 ft 35.69 °N, 117.69 °W | Updated 23 minutes ago

Clear
Clear
75 °F
Feels Like 75 °F
N
4
Wind Variable Wind from West

Today
High -- | Low -- °F
--% Chance of Precip.
Yesterday
High -- | Low -- °F
Precip. -- in
6:45 AM 6:34 PM
Waxing Crescent, 50% visible
Pressure 29.89 in
Visibility 10.0 miles
Clouds Few 27000 ft
Dew Point 39 °F
Humidity 27%
Rainfall 0.00 in
Snow Depth 0 in , 1 in , 0 in
UV 6 out of 12
Pollen 5.50 out of 12
Ozone Good
Flu Activity Not available.
METAR KNID 301756Z 28003KT 10SM FEW270 24/04 A2993 RMK AO2 SLP122 T02390039 10244 20100 58003 $

More Conditions Fewer Conditions

Pressure 29.89 in
Visibility 10.0 miles
Clouds Few 27000 ft
Dew Point 39 °F
Humidity 27%
Rainfall 0.00 in
Snow Depth 0 in , 1 in , 0 in
UV 6 out of 12
Pollen 5.50 out of 12
Ozone Good
Flu Activity Not available.
METAR KNID 301756Z 28003KT 10SM FEW270 24/04 A2993 RMK AO2 SLP122 T02390039 10244 20100 58003 $

More Conditions Fewer Conditions

10-Day Weather Forecast

Almanac

Astronomy

Oct. 01, 2014 Rise Set
Actual Time 6:45 AM PDT 6:34 PM PDT
Civil Twilight 6:20 AM PDT 6:59 PM PDT
Nautical Twilight 5:50 AM PDT 7:28 PM PDT
Astronomical Twilight 5:20 AM PDT 7:58 PM PDT
Moon 1:41 PM PDT No Moon Set
Length of Visible Light 12h 39m
Length of Day
11h 48m
Tomorrow will be 2m 12s shorter.
Waxing Crescent, 50% of the Moon is Illuminated
Today
Waxing Crescent
Oct 1
First Quarter
Oct 8
Full
Oct 15
Last Quarter
Oct 23
New

Today's Extremes

State Highs State Lows

Community

WunderPhotos

Upload Photos

1,758,008 photos uploaded!

WunderBlogs® & News

By Dr. Jeff Masters
Director of Meteorology, Weather Underground
By Kari Strenfel
Meteorologist, Weather Underground
By Christopher C. Burt
Weather Historian, Weather Underground
October 1, 2014
October 1, 2014
October 1, 2014

Nearby

Air Quality

  Air Quality AQ Index Pollutant
Yesterday Good
OZONE
Yesterday Good
PM10
Current Good
OZONE
Wednesday Good
PM10
Wednesday Good
OZONE
Wednesday Good
CO
Wednesday Good
NO2

Snow Depth

Station Depth Elevation
Burnside Lake 0 in 8139 ft
Rubicon #2 1 in 7500 ft
Spratt Creek 0 in 6200 ft
Adin Mountain 0 in 6200 ft
Truckee #2 0 in 6400 ft

Earthquake Activity

City Distance Mag. Time & Date
No recent earthquake activity has been reported nearby.
Minimum magnitude displayed is 2.5.

Coastal Water Temperatures

Place Temperature
No Stations Reporting

Nearby Weather Stations